Time;durP1;ratioP1;P1;durP2;ratioP2;P2;SDS_P1;SDS_P2;PMS_P1;PMS_P2;Temp;Humidity;BMP_temperature;BMP_pressure;BME280_temperature;BME280_humidity;BME280_pressure;Samples;Min_cycle;Max_cycle;Signal;HPM_P1;HPM_P2
2022/06/01 00:02:22;;;;;;;10.27;6.00;;;;;;;10.25;80.08;100603.31;5016544;28;20053;-72
2022/06/01 00:04:48;;;;;;;9.52;6.38;;;;;;;10.23;80.22;100601.78;5016530;28;20064;-72
2022/06/01 00:07:15;;;;;;;10.30;6.03;;;;;;;10.22;80.51;100609.00;5016278;28;20056;-71
2022/06/01 00:09:41;;;;;;;8.07;6.25;;;;;;;10.28;80.31;100604.84;5016340;28;20081;-71
2022/06/01 00:12:09;;;;;;;9.13;5.80;;;;;;;10.30;79.74;100602.81;5016515;28;20137;-71
2022/06/01 00:14:35;;;;;;;9.85;5.60;;;;;;;10.24;79.33;100606.16;5015984;28;20081;-71
2022/06/01 00:17:02;;;;;;;8.38;5.57;;;;;;;10.32;79.35;100602.69;4998582;28;20085;-71
2022/06/01 00:19:28;;;;;;;8.18;5.90;;;;;;;10.32;79.70;100603.50;5015953;28;20068;-72
2022/06/01 00:22:14;;;;;;;9.10;5.90;;;;;;;10.21;80.19;100607.31;5015657;28;20128;-72
2022/06/01 00:24:42;;;;;;;8.32;5.75;;;;;;;10.14;80.51;100613.50;5015752;28;20478;-72
2022/06/01 00:27:09;;;;;;;8.73;6.28;;;;;;;10.06;81.43;100605.38;5015867;28;20085;-72
2022/06/01 00:29:37;;;;;;;10.45;6.25;;;;;;;10.14;80.71;100608.97;5015765;28;20103;-72
2022/06/01 00:32:05;;;;;;;11.65;5.47;;;;;;;10.16;80.14;100614.16;5015692;28;20054;-72
2022/06/01 00:34:32;;;;;;;9.27;6.13;;;;;;;10.15;79.37;100617.84;5016112;28;20129;-72
2022/06/01 00:36:59;;;;;;;9.02;5.07;;;;;;;10.20;78.87;100623.56;5015501;28;20431;-72
2022/06/01 00:39:25;;;;;;;6.20;4.85;;;;;;;10.19;78.88;100621.88;5016249;28;20128;-72
2022/06/01 00:41:52;;;;;;;9.48;5.10;;;;;;;10.13;78.29;100625.19;5015308;28;20104;-72
2022/06/01 00:44:18;;;;;;;6.53;4.97;;;;;;;9.96;78.56;100621.59;5015401;28;20101;-72
2022/06/01 00:46:45;;;;;;;7.32;5.38;;;;;;;9.98;78.58;100615.06;5015951;28;20385;-72
2022/06/01 00:49:21;;;;;;;7.57;5.00;;;;;;;10.06;78.16;100613.44;5015099;28;20406;-71
2022/06/01 00:51:48;;;;;;;7.32;4.57;;;;;;;10.09;77.60;100621.16;5015165;28;20085;-73
2022/06/01 00:54:16;;;;;;;6.55;4.60;;;;;;;10.00;77.63;100621.13;5015373;28;20096;-72
2022/06/01 00:56:49;;;;;;;7.93;4.50;;;;;;;9.90;77.96;100625.75;5015109;28;20057;-72
2022/06/01 00:59:20;;;;;;;6.13;4.47;;;;;;;9.94;77.74;100624.44;5014783;28;20085;-72
2022/06/01 01:01:48;;;;;;;5.07;4.43;;;;;;;10.02;77.26;100629.00;5014980;28;20140;-72
2022/06/01 01:04:15;;;;;;;7.97;4.60;;;;;;;10.05;77.35;100623.31;5015051;28;20045;-72
2022/06/01 01:07:22;;;;;;;7.82;4.78;;;;;;;10.02;77.98;100629.81;5014828;28;20089;-72
2022/06/01 01:09:48;;;;;;;6.53;4.95;;;;;;;10.06;78.32;100630.34;5014487;28;20085;-72
2022/06/01 01:12:15;;;;;;;9.88;5.88;;;;;;;9.97;79.30;100632.16;5014683;28;20148;-70
2022/06/01 01:14:44;;;;;;;8.07;5.55;;;;;;;9.92;79.71;100631.78;5014289;28;20045;-71
2022/06/01 01:17:11;;;;;;;7.53;4.95;;;;;;;9.96;79.45;100633.16;5014229;28;20116;-72
2022/06/01 01:19:43;;;;;;;8.43;5.60;;;;;;;9.97;79.55;100625.97;5014764;28;20498;-72
2022/06/01 01:22:37;;;;;;;6.97;5.53;;;;;;;9.91;79.72;100627.44;5014329;28;20145;-72
2022/06/01 01:25:28;;;;;;;10.20;5.65;;;;;;;9.88;79.70;100633.09;5014121;28;20046;-72
2022/06/01 01:27:58;;;;;;;6.95;5.55;;;;;;;9.91;79.45;100643.50;5014335;28;20081;-72
2022/06/01 01:30:39;;;;;;;8.43;5.38;;;;;;;9.88;79.40;100638.44;5014535;28;20477;-71
2022/06/01 01:33:28;;;;;;;9.40;5.82;;;;;;;9.93;79.40;100638.00;5015364;28;20439;-72
2022/06/01 01:36:01;;;;;;;8.85;5.25;;;;;;;9.91;79.63;100637.31;5014339;28;20524;-72
2022/06/01 01:38:37;;;;;;;9.55;5.63;;;;;;;9.86;79.76;100634.28;5014053;28;20054;-71
2022/06/01 01:41:07;;;;;;;7.13;5.50;;;;;;;9.84;79.78;100633.59;5014351;28;20077;-71
2022/06/01 01:43:37;;;;;;;8.27;5.68;;;;;;;9.87;79.52;100633.25;5014318;28;20119;-71
2022/06/01 01:46:04;;;;;;;7.72;5.50;;;;;;;9.84;79.13;100633.59;5014806;28;20054;-71
2022/06/01 01:48:32;;;;;;;5.97;5.18;;;;;;;9.81;79.19;100624.00;5014458;28;20057;-72
2022/06/01 01:50:59;;;;;;;7.75;5.35;;;;;;;9.79;79.19;100631.38;5013869;28;20057;-72
2022/06/01 01:53:26;;;;;;;5.85;4.63;;;;;;;9.67;79.20;100632.63;5014114;28;20053;-72
2022/06/01 01:55:53;;;;;;;9.27;5.78;;;;;;;9.68;79.42;100624.44;5014025;28;20447;-72
2022/06/01 01:58:50;;;;;;;5.97;5.18;;;;;;;9.73;79.27;100630.16;5013718;28;20092;-71
2022/06/01 02:01:28;;;;;;;7.93;5.43;;;;;;;9.76;79.07;100629.00;5014054;28;20459;-72
2022/06/01 02:06:03;;;;;;;6.00;4.93;;;;;;;9.75;79.17;100630.00;5014176;28;20189;-71
2022/06/01 02:06:57;;;;;;;9.55;4.90;;;;;;;9.71;79.29;100626.78;5007295;28;20128;-72
2022/06/01 02:09:24;;;;;;;5.75;5.20;;;;;;;9.72;79.15;100622.28;5014618;28;20060;-72
2022/06/01 02:14:50;;;;;;;6.75;4.88;;;;;;;9.69;79.31;100627.97;5014046;28;20077;-72
2022/06/01 02:17:48;;;;;;;7.07;4.88;;;;;;;9.74;78.67;100614.91;5013766;28;20476;-72
2022/06/01 02:20:25;;;;;;;8.20;5.00;;;;;;;9.72;78.91;100611.59;5005633;28;20054;-73
2022/06/01 02:22:53;;;;;;;4.90;4.40;;;;;;;9.73;78.80;100615.94;5014064;28;20148;-72
2022/06/01 02:25:20;;;;;;;7.43;4.32;;;;;;;9.73;78.88;100613.25;5014071;28;20073;-72
2022/06/01 02:27:49;;;;;;;5.57;4.35;;;;;;;9.73;79.04;100607.88;5013949;28;20137;-71
2022/06/01 02:30:22;;;;;;;6.68;5.07;;;;;;;9.73;78.87;100608.72;5014480;28;20449;-72
2022/06/01 02:32:49;;;;;;;5.97;5.00;;;;;;;9.74;78.73;100614.91;5013727;28;20092;-71
2022/06/01 02:35:19;;;;;;;7.50;4.78;;;;;;;9.74;78.76;100618.44;5013405;28;20046;-71
2022/06/01 02:37:50;;;;;;;10.38;4.50;;;;;;;9.70;79.11;100613.56;5015665;28;20140;-72
2022/06/01 02:40:22;;;;;;;6.63;4.23;;;;;;;9.65;79.36;100602.50;5017833;28;20486;-72
2022/06/01 02:42:50;;;;;;;5.18;4.60;;;;;;;9.66;79.45;100604.16;5018179;28;20064;-72
2022/06/01 02:45:20;;;;;;;6.80;4.43;;;;;;;9.68;79.86;100597.66;5017764;28;20543;-72
2022/06/01 02:47:47;;;;;;;7.20;4.72;;;;;;;9.68;79.92;100608.38;5017583;28;20073;-72
2022/06/01 02:50:17;;;;;;;5.80;4.72;;;;;;;9.65;79.78;100605.16;5018556;28;20054;-72
2022/06/01 02:52:44;;;;;;;6.68;4.80;;;;;;;9.68;79.74;100610.19;5017830;28;20549;-73
2022/06/01 02:55:12;;;;;;;7.97;5.13;;;;;;;9.69;79.63;100614.56;5017561;28;20053;-73
2022/06/01 02:57:41;;;;;;;5.75;4.50;;;;;;;9.54;79.45;100617.81;5017556;28;20140;-72
2022/06/01 03:00:29;;;;;;;8.13;4.80;;;;;;;9.56;79.61;100629.19;5018058;28;20073;-72
2022/06/01 03:02:59;;;;;;;11.15;4.70;;;;;;;9.62;79.44;100625.06;5017131;28;20136;-72
2022/06/01 03:05:30;;;;;;;9.20;5.28;;;;;;;9.62;79.54;100621.56;5018226;28;20441;-71
2022/06/01 03:07:57;;;;;;;7.55;5.40;;;;;;;9.56;79.79;100626.53;5017508;28;20052;-72
2022/06/01 03:10:24;;;;;;;6.45;4.63;;;;;;;9.57;79.76;100622.00;5017524;28;20133;-72
2022/06/01 03:12:51;;;;;;;7.70;4.82;;;;;;;9.52;79.54;100632.34;5017177;28;20521;-72
2022/06/01 03:15:19;;;;;;;6.32;4.65;;;;;;;9.51;79.62;100626.16;5017119;28;20470;-72
2022/06/01 03:17:46;;;;;;;8.32;4.70;;;;;;;9.50;79.53;100628.97;5008675;28;20088;-72
2022/06/01 03:20:16;;;;;;;8.80;4.47;;;;;;;9.52;79.65;100627.84;5017645;28;20451;-71
2022/06/01 03:22:43;;;;;;;4.80;4.30;;;;;;;9.48;79.33;100621.09;5016837;28;20085;-72
2022/06/01 03:25:13;;;;;;;6.25;4.30;;;;;;;9.49;79.54;100620.09;5017040;28;20088;-71
2022/06/01 03:27:40;;;;;;;6.88;4.75;;;;;;;9.50;79.41;100620.94;5016925;28;20478;-71
2022/06/01 03:30:12;;;;;;;5.60;4.65;;;;;;;9.50;79.23;100619.09;5017066;28;20077;-72
2022/06/01 03:32:38;;;;;;;6.13;4.82;;;;;;;9.52;79.42;100625.16;5017015;28;20093;-72
2022/06/01 03:35:06;;;;;;;6.57;4.68;;;;;;;9.40;80.34;100618.34;5016557;28;20089;-71
2022/06/01 03:37:33;;;;;;;9.40;5.80;;;;;;;9.30;80.65;100622.94;5016695;28;20074;-71
2022/06/01 03:39:59;;;;;;;9.93;5.40;;;;;;;9.31;80.49;100620.13;5017025;28;20138;-72
2022/06/01 03:42:26;;;;;;;7.05;5.18;;;;;;;9.26;80.91;100626.94;5016678;28;20149;-72
2022/06/01 03:47:38;;;;;;;5.75;5.18;;;;;;;9.43;80.54;100630.59;5016473;28;20066;-72
2022/06/01 03:50:05;;;;;;;6.97;5.45;;;;;;;9.29;80.86;100629.31;5015761;28;20096;-72
2022/06/01 03:52:31;;;;;;;7.82;5.78;;;;;;;9.33;80.98;100633.34;5016371;28;20050;-72
2022/06/01 03:54:58;;;;;;;7.22;6.07;;;;;;;9.38;80.79;100627.56;5016088;28;20050;-71
2022/06/01 03:57:24;;;;;;;10.05;6.63;;;;;;;9.31;80.88;100630.00;5016091;28;20089;-71
2022/06/01 03:59:51;;;;;;;10.43;6.32;;;;;;;9.22;80.65;100628.22;5016394;28;20050;-71
2022/06/01 04:02:17;;;;;;;8.63;5.85;;;;;;;9.35;80.22;100631.38;5016278;28;20137;-72
2022/06/01 04:04:44;;;;;;;7.43;6.18;;;;;;;9.26;80.05;100632.28;5016519;28;20050;-72
2022/06/01 04:07:10;;;;;;;11.10;6.57;;;;;;;9.28;79.65;100631.16;5017090;28;20054;-72
2022/06/01 04:09:36;;;;;;;9.00;6.18;;;;;;;9.36;79.47;100637.56;5016500;28;20483;-72
2022/06/01 04:12:03;;;;;;;7.03;5.82;;;;;;;9.37;79.14;100632.06;5016353;28;20482;-72
2022/06/01 04:14:30;;;;;;;9.25;6.25;;;;;;;9.34;79.26;100639.56;5015818;28;20085;-72
2022/06/01 04:16:56;;;;;;;8.63;6.30;;;;;;;9.26;79.16;100637.66;5015820;28;20150;-72
2022/06/01 04:19:23;;;;;;;6.93;6.18;;;;;;;9.40;78.71;100642.44;5015728;28;20465;-72
2022/06/01 04:21:53;;;;;;;9.43;6.32;;;;;;;9.40;78.65;100645.13;5015700;28;20081;-72
2022/06/01 04:24:25;;;;;;;8.90;7.00;;;;;;;9.31;78.63;100646.06;5016271;28;20498;-72
2022/06/01 04:26:51;;;;;;;8.80;6.55;;;;;;;9.33;78.84;100654.78;5015950;28;20069;-72
2022/06/01 04:29:18;;;;;;;10.32;7.05;;;;;;;9.21;78.76;100645.28;5015660;28;20413;-72
2022/06/01 04:31:45;;;;;;;11.82;7.05;;;;;;;9.21;78.67;100650.63;5015783;28;20065;-72
2022/06/01 04:34:12;;;;;;;8.35;6.97;;;;;;;9.34;78.06;100644.94;5015788;28;20054;-72
2022/06/01 04:36:39;;;;;;;9.45;7.32;;;;;;;9.22;78.05;100646.94;5015530;28;20487;-72
2022/06/01 04:39:06;;;;;;;10.30;7.03;;;;;;;9.28;77.74;100647.22;5015500;28;20513;-72
2022/06/01 04:41:34;;;;;;;10.07;6.70;;;;;;;9.33;77.81;100652.09;5016007;28;20485;-72
2022/06/01 04:44:00;;;;;;;9.82;7.40;;;;;;;9.22;77.69;100655.81;5015600;28;20078;-72
2022/06/01 04:46:27;;;;;;;10.10;7.15;;;;;;;9.30;77.52;100660.44;5015532;28;20046;-72
2022/06/01 04:48:54;;;;;;;10.52;7.10;;;;;;;9.39;77.08;100662.19;5015370;28;20445;-72
2022/06/01 04:51:21;;;;;;;9.05;7.13;;;;;;;9.41;76.85;100665.56;5015532;28;20549;-72
2022/06/01 04:53:47;;;;;;;9.68;7.05;;;;;;;9.52;76.15;100659.97;5015514;28;20080;-72
2022/06/01 04:56:13;;;;;;;10.40;7.88;;;;;;;9.61;75.22;100668.06;5015985;28;20425;-72
2022/06/01 04:58:40;;;;;;;10.98;8.20;;;;;;;9.69;74.58;100668.97;5015772;28;20046;-72
2022/06/01 05:01:07;;;;;;;13.77;8.20;;;;;;;9.74;74.11;100673.84;5014578;28;20053;-71
2022/06/01 05:03:34;;;;;;;8.48;6.82;;;;;;;9.93;72.95;100670.16;5015152;28;20141;-71
2022/06/01 05:06:00;;;;;;;6.63;5.38;;;;;;;10.02;72.01;100666.50;5015220;28;20490;-72
2022/06/01 05:08:27;;;;;;;9.45;6.22;;;;;;;9.86;72.84;100661.06;5014633;28;20144;-72
2022/06/01 05:10:53;;;;;;;8.20;5.90;;;;;;;9.84;72.20;100663.88;5015052;28;20136;-71
2022/06/01 05:13:20;;;;;;;14.93;5.30;;;;;;;9.72;72.13;100675.88;5015056;28;20469;-72
2022/06/01 05:15:55;;;;;;;7.78;5.38;;;;;;;9.95;71.35;100674.34;5014897;28;20136;-72
2022/06/01 05:18:23;;;;;;;7.60;5.35;;;;;;;9.94;71.43;100670.00;5014331;28;20104;-72
2022/06/01 05:20:50;;;;;;;8.77;6.05;;;;;;;9.87;71.52;100671.63;5014818;28;20136;-71
2022/06/01 05:23:25;;;;;;;11.82;6.53;;;;;;;9.74;72.11;100677.38;5095860;27;20382;-73
2022/06/01 05:25:53;;;;;;;8.43;5.78;;;;;;;9.87;71.76;100681.50;5095374;28;20052;-73
2022/06/01 05:28:23;;;;;;;9.63;5.78;;;;;;;9.76;71.96;100683.44;5096315;28;20214;-73
2022/06/01 05:30:50;;;;;;;7.82;5.20;;;;;;;9.84;70.59;100677.28;5095791;28;20072;-73
2022/06/01 05:33:23;;;;;;;8.70;5.30;;;;;;;9.90;70.28;100686.56;5093171;28;20062;-72
2022/06/01 05:35:49;;;;;;;9.63;5.00;;;;;;;9.88;69.62;100673.28;5096990;28;20055;-73
2022/06/01 05:38:16;;;;;;;12.32;5.40;;;;;;;10.13;69.04;100668.94;5097987;28;20087;-73
2022/06/01 05:40:42;;;;;;;6.40;5.18;;;;;;;10.30;68.57;100677.91;5095466;28;20083;-73
2022/06/01 05:43:15;;;;;;;7.13;5.55;;;;;;;10.23;69.06;100671.50;5092119;28;20087;-72
2022/06/01 05:45:42;;;;;;;7.60;5.45;;;;;;;10.06;69.73;100664.34;5093035;28;20048;-72
2022/06/01 05:48:10;;;;;;;15.07;6.03;;;;;;;10.12;69.31;100672.59;5092531;28;20330;-71
2022/06/01 05:50:38;;;;;;;10.10;5.55;;;;;;;9.91;69.85;100683.69;5092753;28;20048;-72
2022/06/01 05:53:05;;;;;;;8.63;4.90;;;;;;;9.92;69.44;100665.78;5093233;28;20473;-72
2022/06/01 05:55:31;;;;;;;7.18;4.60;;;;;;;9.79;69.56;100672.41;5092511;28;20471;-72
2022/06/01 05:57:58;;;;;;;7.00;4.70;;;;;;;9.91;69.01;100667.63;5091867;28;20050;-72
2022/06/01 06:00:24;;;;;;;8.88;4.78;;;;;;;9.84;68.59;100657.69;5091962;28;20052;-72
2022/06/01 06:02:51;;;;;;;12.20;4.90;;;;;;;9.83;69.01;100667.56;5091571;28;20086;-72
2022/06/01 06:08:03;;;;;;;8.80;4.70;;;;;;;10.08;68.48;100670.41;5091148;28;20091;-72
2022/06/01 06:10:29;;;;;;;7.78;3.85;;;;;;;10.25;67.77;100672.19;5091681;28;20485;-73
2022/06/01 06:12:57;;;;;;;8.48;4.10;;;;;;;10.39;67.02;100676.13;5093701;28;20079;-72
2022/06/01 06:15:24;;;;;;;5.80;3.60;;;;;;;10.57;66.12;100673.38;5095541;28;20052;-73
2022/06/01 06:17:53;;;;;;;4.78;3.90;;;;;;;10.78;65.81;100672.94;5092495;28;20507;-72
2022/06/01 06:20:19;;;;;;;7.25;4.30;;;;;;;10.94;65.14;100673.00;5093351;28;20044;-72
2022/06/01 06:22:46;;;;;;;6.90;3.67;;;;;;;11.17;64.56;100674.06;5094179;28;20495;-72
2022/06/01 06:25:12;;;;;;;4.53;3.50;;;;;;;11.01;64.92;100679.41;5093598;28;20139;-73
2022/06/01 06:27:40;;;;;;;6.15;2.88;;;;;;;11.05;63.81;100674.53;5093959;28;20079;-72
2022/06/01 06:30:07;;;;;;;5.82;2.80;;;;;;;11.21;63.40;100663.84;5092581;28;20110;-72
2022/06/01 06:32:34;;;;;;;6.38;3.30;;;;;;;11.17;63.83;100657.09;5091385;28;20459;-72
2022/06/01 06:35:00;;;;;;;4.97;3.45;;;;;;;11.30;63.72;100659.28;5077796;28;20088;-72
2022/06/01 06:37:27;;;;;;;3.55;2.80;;;;;;;11.31;63.42;100663.66;5079483;28;20515;-72
2022/06/01 06:39:54;;;;;;;5.68;3.53;;;;;;;11.31;63.45;100659.16;5079966;28;20165;-72
2022/06/01 06:42:20;;;;;;;4.63;3.22;;;;;;;11.24;63.61;100652.75;5082926;28;20436;-72
2022/06/01 06:44:47;;;;;;;3.85;3.40;;;;;;;11.37;63.14;100663.81;5081307;28;20075;-72
2022/06/01 06:47:13;;;;;;;4.53;2.78;;;;;;;11.69;62.00;100667.59;5079032;28;20083;-72
2022/06/01 06:49:40;;;;;;;4.30;2.58;;;;;;;11.86;62.19;100671.94;5080186;28;20090;-71
2022/06/01 06:52:06;;;;;;;7.75;2.92;;;;;;;12.14;61.09;100668.84;5079439;28;20084;-72
2022/06/01 06:54:34;;;;;;;7.20;3.30;;;;;;;12.33;60.32;100664.94;5078948;28;20143;-73
2022/06/01 06:57:00;;;;;;;5.85;2.67;;;;;;;12.55;59.73;100660.63;5080275;28;20063;-73
2022/06/01 06:59:27;;;;;;;6.28;2.92;;;;;;;13.03;58.53;100656.03;5081284;28;20091;-74
2022/06/01 07:01:53;;;;;;;6.00;3.17;;;;;;;13.31;57.05;100656.34;5083061;28;20461;-74
2022/06/01 07:04:20;;;;;;;12.93;2.83;;;;;;;13.43;56.14;100657.63;5080600;28;20068;-73
2022/06/01 07:06:46;;;;;;;5.00;2.90;;;;;;;13.79;55.64;100662.41;5085149;28;20048;-74
2022/06/01 07:09:13;;;;;;;4.40;2.80;;;;;;;14.42;54.25;100674.53;5085429;28;20072;-74
2022/06/01 07:11:39;;;;;;;10.35;3.03;;;;;;;14.63;53.33;100671.06;5084110;28;20052;-74
2022/06/01 07:14:06;;;;;;;2.38;2.15;;;;;;;14.96;51.75;100678.78;5083081;28;20443;-74
2022/06/01 07:16:35;;;;;;;4.40;2.17;;;;;;;14.87;51.62;100677.22;5081623;28;20108;-74
2022/06/01 07:19:05;;;;;;;4.43;1.63;;;;;;;14.98;50.92;100682.13;5083551;28;20075;-74
2022/06/01 07:21:36;;;;;;;3.15;1.98;;;;;;;14.93;51.51;100688.09;5082233;28;20088;-74
2022/06/01 07:24:04;;;;;;;4.70;2.08;;;;;;;14.70;51.85;100677.41;5083167;28;20098;-73
2022/06/01 07:26:35;;;;;;;4.80;1.88;;;;;;;14.75;51.58;100682.28;5083914;28;20080;-73
2022/06/01 07:29:03;;;;;;;2.63;1.60;;;;;;;14.56;52.02;100680.94;5084659;28;20052;-73
2022/06/01 07:31:30;;;;;;;3.33;1.98;;;;;;;14.41;51.55;100677.44;5081570;28;20140;-74
2022/06/01 07:34:00;;;;;;;4.40;1.83;;;;;;;14.57;50.52;100682.66;5080388;28;20484;-74
2022/06/01 07:36:28;;;;;;;2.13;1.58;;;;;;;14.47;50.36;100685.63;5080973;28;20053;-73
2022/06/01 07:44:34;;;;;;;5.60;2.70;;;;;;;15.23;48.91;100683.47;5079329;28;20086;-74
2022/06/01 07:47:01;;;;;;;6.13;2.00;;;;;;;15.28;48.88;100680.16;5078534;28;20052;-74
2022/06/01 07:49:48;;;;;;;7.00;2.13;;;;;;;15.07;49.64;100683.69;5082270;28;20049;-74
2022/06/01 07:52:34;;;;;;;4.70;1.90;;;;;;;14.86;50.23;100678.25;5082265;28;20469;-74
2022/06/01 07:55:01;;;;;;;4.85;1.80;;;;;;;14.49;50.99;100683.56;5082557;28;20127;-74
2022/06/01 07:57:27;;;;;;;3.47;1.80;;;;;;;14.45;51.27;100678.72;5084772;28;20056;-74
2022/06/01 07:59:54;;;;;;;9.63;2.75;;;;;;;14.20;52.25;100684.41;5083217;28;20079;-73
2022/06/01 08:02:20;;;;;;;6.20;2.60;;;;;;;14.23;51.54;100685.91;5083411;28;20048;-74
2022/06/01 08:04:47;;;;;;;4.03;2.53;;;;;;;13.87;52.49;100683.88;5084300;28;20052;-73
2022/06/01 08:07:13;;;;;;;6.43;2.42;;;;;;;14.08;51.15;100683.19;5082797;28;20055;-74
2022/06/01 08:09:40;;;;;;;8.50;2.75;;;;;;;13.71;52.26;100682.16;5081631;28;20049;-74
2022/06/01 08:14:52;;;;;;;4.10;2.33;;;;;;;13.97;52.39;100687.16;5082512;28;20052;-74
2022/06/01 08:17:19;;;;;;;7.32;3.10;;;;;;;14.11;52.16;100682.81;5082901;28;20049;-74
2022/06/01 08:19:46;;;;;;;5.60;2.30;;;;;;;14.11;52.38;100677.41;5078368;28;20078;-74
2022/06/01 08:22:15;;;;;;;9.35;3.30;;;;;;;13.86;52.91;100684.06;5081417;28;20056;-73
2022/06/01 08:24:42;;;;;;;5.82;2.95;;;;;;;14.17;51.95;100692.03;5083512;28;20136;-73
2022/06/01 08:27:09;;;;;;;4.32;2.58;;;;;;;14.24;51.37;100688.41;5082303;28;20411;-73
2022/06/01 08:29:36;;;;;;;6.53;2.65;;;;;;;14.39;50.60;100687.56;5081117;28;20139;-74
2022/06/01 08:32:03;;;;;;;6.68;2.25;;;;;;;14.33;51.54;100696.44;5080609;28;20049;-73
2022/06/01 08:34:30;;;;;;;5.25;2.28;;;;;;;14.70;50.09;100693.63;5085112;28;20060;-74
2022/06/01 08:36:56;;;;;;;13.15;3.00;;;;;;;14.98;49.69;100688.38;5083098;28;20056;-74
2022/06/01 08:39:23;;;;;;;4.25;2.50;;;;;;;15.06;49.87;100697.41;5081505;28;20084;-74
2022/06/01 08:41:49;;;;;;;5.07;2.15;;;;;;;14.74;49.45;100689.56;5083083;28;20495;-74
2022/06/01 08:44:22;;;;;;;3.75;1.70;;;;;;;14.99;47.77;100700.03;5081911;28;20087;-74
2022/06/01 08:46:51;;;;;;;5.38;1.95;;;;;;;15.15;48.00;100702.47;5080155;28;20048;-74
2022/06/01 08:49:25;;;;;;;3.08;1.98;;;;;;;15.39;47.59;100697.75;5084218;28;20048;-74
2022/06/01 08:51:52;;;;;;;2.80;1.80;;;;;;;15.90;43.98;100705.75;5082223;28;20048;-74
2022/06/01 08:54:20;;;;;;;5.15;1.85;;;;;;;16.48;43.04;100709.06;5081121;28;20059;-74
2022/06/01 08:56:51;;;;;;;4.10;1.80;;;;;;;17.03;41.45;100711.84;5080098;28;20052;-74
2022/06/01 08:59:28;;;;;;;5.88;1.55;;;;;;;17.31;41.13;100714.44;5080906;28;20106;-74
2022/06/01 09:02:05;;;;;;;2.25;1.40;;;;;;;17.55;39.84;100711.19;5078449;28;20094;-74
2022/06/01 09:04:57;;;;;;;4.28;1.67;;;;;;;17.52;40.21;100703.44;5081230;28;20059;-74
2022/06/01 09:07:33;;;;;;;2.90;1.40;;;;;;;17.87;38.58;100708.69;5080784;28;20058;-74
2022/06/01 09:10:08;;;;;;;2.97;1.60;;;;;;;18.36;36.91;100714.72;5079003;28;20052;-74
2022/06/01 09:12:35;;;;;;;4.57;1.50;;;;;;;18.75;36.57;100705.63;5079118;28;20041;-75
2022/06/01 09:15:17;;;;;;;3.10;1.65;;;;;;;19.30;35.38;100706.03;5080206;28;20054;-74
2022/06/01 09:17:45;;;;;;;5.43;2.03;;;;;;;19.25;35.75;100705.88;5080911;28;20052;-74
2022/06/01 09:23:11;;;;;;;6.15;1.70;;;;;;;18.78;35.52;100697.06;5080553;28;20488;-75
2022/06/01 09:25:38;;;;;;;4.18;1.60;;;;;;;19.63;34.85;100702.25;5080446;28;20060;-75
2022/06/01 09:28:18;;;;;;;3.22;1.98;;;;;;;19.97;32.89;100698.25;5080532;28;20067;-74
2022/06/01 09:30:54;;;;;;;8.02;2.40;;;;;;;20.30;32.28;100702.53;5080314;28;20060;-75
2022/06/01 09:33:27;;;;;;;6.38;1.30;;;;;;;20.83;30.96;100700.06;5080082;28;20064;-74
2022/06/01 09:36:06;;;;;;;7.65;2.22;;;;;;;19.65;31.92;100700.97;5081180;28;20044;-74
2022/06/01 09:38:39;;;;;;;5.13;2.22;;;;;;;19.77;33.23;100692.16;5078993;28;20063;-74
2022/06/01 09:41:27;;;;;;;12.27;2.00;;;;;;;19.79;32.52;100696.28;5081287;28;20059;-75
2022/06/01 09:43:58;;;;;;;6.13;1.58;;;;;;;19.85;32.77;100684.50;5079488;28;20385;-75
2022/06/01 09:46:37;;;;;;;3.35;1.58;;;;;;;21.23;29.83;100691.41;5080000;28;20135;-74
2022/06/01 09:49:11;;;;;;;6.85;2.70;;;;;;;20.37;30.91;100692.41;5079682;28;20060;-74
2022/06/01 09:51:40;;;;;;;6.30;3.58;;;;;;;20.40;30.37;100684.63;5078862;28;20048;-74
2022/06/01 09:54:15;;;;;;;7.80;1.77;;;;;;;20.38;31.26;100674.97;5077648;28;20095;-75
2022/06/01 09:56:48;;;;;;;3.83;1.55;;;;;;;20.43;31.49;100676.00;5078112;28;20048;-73
2022/06/01 10:08:15;;;;;;;3.30;1.63;;;;;;;20.60;29.42;100669.97;5078531;28;20056;-74
2022/06/01 10:10:59;;;;;;;7.22;2.33;;;;;;;21.25;28.99;100664.72;5082879;28;20080;-75
2022/06/01 10:13:35;;;;;;;3.08;1.40;;;;;;;21.33;27.95;100664.38;5082539;28;20071;-73
2022/06/01 10:16:22;;;;;;;2.88;1.73;;;;;;;19.71;30.42;100658.47;5082904;28;20395;-73
2022/06/01 10:18:50;;;;;;;6.55;1.90;;;;;;;19.28;31.30;100667.34;5083996;28;20074;-73
2022/06/01 10:21:23;;;;;;;4.93;1.92;;;;;;;18.69;32.43;100657.59;5083819;28;20088;-74
2022/06/01 10:23:57;;;;;;;3.20;1.73;;;;;;;17.73;34.86;100658.19;5083199;28;20048;-72
2022/06/01 10:26:31;;;;;;;4.38;1.98;;;;;;;18.67;33.92;100654.25;5085902;28;20080;-72
2022/06/01 10:29:05;;;;;;;4.70;1.83;;;;;;;19.18;33.19;100645.25;5084020;28;20049;-72
2022/06/01 10:31:38;;;;;;;4.03;1.80;;;;;;;18.59;33.68;100649.06;5084226;28;20072;-73
2022/06/01 10:34:18;;;;;;;4.53;1.90;;;;;;;18.93;32.66;100643.28;5082238;28;20045;-72
2022/06/01 10:37:18;;;;;;;6.93;1.80;;;;;;;19.55;31.77;100638.03;5084616;28;20148;-73
2022/06/01 10:39:51;;;;;;;3.97;1.80;;;;;;;18.86;32.83;100638.88;5082222;28;20084;-72
2022/06/01 10:45:26;;;;;;;3.70;1.40;;;;;;;19.10;33.45;100626.44;5083190;28;20052;-73
2022/06/01 10:48:00;;;;;;;5.10;1.92;;;;;;;18.71;33.27;100639.19;5082132;28;20056;-73
2022/06/01 10:50:37;;;;;;;4.75;1.85;;;;;;;17.94;34.11;100633.53;5083561;28;20083;-72
2022/06/01 10:53:23;;;;;;;6.00;1.95;;;;;;;17.52;34.13;100635.66;5082487;28;20055;-74
2022/06/01 10:55:50;;;;;;;5.38;1.80;;;;;;;;;;5081735;28;20052;-72
2022/06/01 10:58:21;;;;;;;5.93;1.80;;;;;;;18.08;34.23;100624.31;5083533;28;20503;-75
2022/06/01 11:00:50;;;;;;;;;;;;;;;18.01;34.29;100628.91;5081251;28;20099;-72
2022/06/01 11:03:41;;;;;;;4.38;1.65;;;;;;;17.89;34.23;100630.63;5082102;28;19925;-74
2022/06/01 11:06:29;;;;;;;8.03;1.57;;;;;;;17.79;34.50;100616.66;5085041;28;20036;-72
2022/06/01 11:09:12;;;;;;;4.90;2.10;;;;;;;17.88;34.72;100601.81;5083323;28;20322;-73
2022/06/01 11:11:59;;;;;;;4.32;1.77;;;;;;;17.89;35.51;100617.06;5082583;28;20091;-71
2022/06/01 11:14:42;;;;;;;7.50;1.73;;;;;;;17.49;34.20;100616.25;5083463;28;20452;-74
2022/06/01 11:17:22;;;;;;;2.35;1.60;;;;;;;17.58;34.48;100615.81;5083268;28;20080;-72
2022/06/01 11:20:10;;;;;;;4.93;1.73;;;;;;;17.97;33.67;100597.81;5081707;28;20405;-73
2022/06/01 11:23:02;;;;;;;3.92;1.55;;;;;;;18.39;32.97;100595.63;5081096;28;20125;-72
2022/06/01 11:25:58;;;;;;;8.05;2.28;;;;;;;18.48;33.38;100604.38;5080853;28;20083;-72
2022/06/01 11:28:43;;;;;;;4.18;1.60;;;;;;;18.75;33.03;100602.34;5080825;28;20049;-71
2022/06/01 11:31:24;;;;;;;5.38;2.30;;;;;;;18.82;32.09;100600.44;5080726;28;20139;-72
2022/06/01 11:34:01;;;;;;;3.67;2.08;;;;;;;18.76;32.76;100607.59;5081743;28;20123;-73
2022/06/01 11:36:39;;;;;;;6.95;2.10;;;;;;;18.07;33.21;100609.09;5079809;28;20052;-72
2022/06/01 11:39:34;;;;;;;5.25;2.10;;;;;;;17.78;34.39;100609.53;5083297;28;20151;-73
2022/06/01 11:42:19;;;;;;;4.50;1.90;;;;;;;17.19;35.07;100611.16;5081597;28;20071;-72
2022/06/01 11:44:54;;;;;;;5.53;2.53;;;;;;;16.84;36.59;100605.88;5079339;28;20117;-71
2022/06/01 11:47:22;;;;;;;5.28;2.03;;;;;;;16.95;36.82;100609.88;5080262;28;20052;-72
2022/06/01 11:50:18;;;;;;;10.38;2.03;;;;;;;17.04;35.81;100607.81;5082046;28;20131;-71
2022/06/01 11:52:53;;;;;;;4.93;1.58;;;;;;;17.29;35.32;100613.47;5081761;28;20059;-73
2022/06/01 11:55:24;;;;;;;4.40;1.50;;;;;;;17.11;35.56;100612.22;5082538;28;20086;-73
2022/06/01 11:57:54;;;;;;;5.13;1.88;;;;;;;16.89;36.44;100602.59;5080156;28;20045;-72
2022/06/01 12:00:51;;;;;;;2.65;1.25;;;;;;;16.94;36.18;100600.09;5046143;28;20051;-73
2022/06/01 12:03:21;;;;;;;4.88;1.80;;;;;;;17.09;35.41;100600.75;5082858;28;20436;-74
2022/06/01 12:06:03;;;;;;;8.52;1.30;;;;;;;16.66;35.84;100601.03;5076409;28;20049;-74
2022/06/01 12:08:54;;;;;;;2.70;1.60;;;;;;;16.43;36.29;100614.03;5080121;28;20063;-71
2022/06/01 12:11:39;;;;;;;1.75;1.20;;;;;;;16.65;35.97;100601.25;5084482;28;20049;-73
2022/06/01 12:14:54;;;;;;;4.18;1.20;;;;;;;16.97;35.94;100588.84;5082156;28;20522;-73
2022/06/01 12:17:20;;;;;;;2.10;1.55;;;;;;;16.91;36.78;100597.78;5083148;28;20060;-71
2022/06/01 12:19:52;;;;;;;3.78;1.40;;;;;;;16.52;36.47;100604.75;5081001;28;20067;-72
2022/06/01 12:28:51;;;;;;;5.45;1.60;;;;;;;16.62;35.66;100593.53;5079250;28;20080;-72